Terminal Aerodrome Forecast
Issued by NWS Newport/Morehead City, NC

Home | Current Version | Previous Version | Graphics & Text | Print | Product List | Glossary On
Versions: 1 2 3 4 5 6 7 8 9 10 11 12 13 14 15
000
FTUS42 KMHX 281125
TAFEWN
TAF
KEWN 281125Z 2812/2912 VRB03KT P6SM SCT070
     FM281800 12005KT P6SM VCTS SCT040CB BKN070
     FM282200 16007KT P6SM BKN080
     FM290600 VRB04KT P6SM VCSH SCT015 BKN080=

USA.gov is the U.S. government's official web portal to all federal, state and local government web resources and services.